createdAt,value
2022-08-03T00:01:31.368Z,18.40
2022-08-03T00:04:34.106Z,18.24
2022-08-03T00:07:38.753Z,18.20
2022-08-03T00:10:40.849Z,18.17
2022-08-03T00:13:42.942Z,18.15
2022-08-03T00:16:45.002Z,18.24
2022-08-03T00:19:47.093Z,18.29
2022-08-03T00:22:49.895Z,18.48
2022-08-03T00:25:52.126Z,18.25
2022-08-03T00:28:54.222Z,18.33
2022-08-03T00:32:00.057Z,18.42
2022-08-03T00:35:07.940Z,18.40
2022-08-03T00:38:11.265Z,18.37
2022-08-03T00:41:13.334Z,18.71
2022-08-03T00:44:17.882Z,18.55
2022-08-03T00:47:19.945Z,18.54
2022-08-03T00:50:23.300Z,18.76
2022-08-03T00:53:25.466Z,18.65
2022-08-03T00:56:27.965Z,18.33
2022-08-03T00:59:30.364Z,18.55
2022-08-03T01:02:32.439Z,18.11
2022-08-03T01:05:52.281Z,18.48
2022-08-03T01:09:17.023Z,18.21
2022-08-03T01:12:33.219Z,18.12
2022-08-03T01:15:44.663Z,18.19
2022-08-03T01:19:24.325Z,18.14
2022-08-03T01:23:18.440Z,17.93
2022-08-03T01:26:47.047Z,17.81
2022-08-03T01:30:07.920Z,17.92
2022-08-03T01:33:17.783Z,18.08
2022-08-03T01:36:23.084Z,18.12
2022-08-03T01:39:25.555Z,18.24
2022-08-03T01:42:27.669Z,18.30
2022-08-03T01:45:30.105Z,18.23
2022-08-03T01:48:40.300Z,17.99
2022-08-03T01:52:04.541Z,18.37
2022-08-03T01:55:05.712Z,18.06
2022-08-03T01:58:08.558Z,18.18
2022-08-03T02:01:10.842Z,18.10
2022-08-03T02:04:13.150Z,18.17
2022-08-03T02:07:15.731Z,18.09
2022-08-03T02:10:34.611Z,18.08
2022-08-03T02:13:37.960Z,18.01
2022-08-03T02:16:40.134Z,18.06
2022-08-03T02:19:43.305Z,17.90
2022-08-03T02:22:45.538Z,17.62
2022-08-03T02:25:52.966Z,17.52
2022-08-03T02:28:55.067Z,17.63
2022-08-03T02:31:58.468Z,17.21
2022-08-03T02:35:01.241Z,17.55
2022-08-03T02:38:05.342Z,17.47
2022-08-03T02:41:15.184Z,17.65
2022-08-03T02:44:21.769Z,17.35
2022-08-03T02:47:24.004Z,17.90
2022-08-03T02:50:26.269Z,17.75
2022-08-03T02:53:28.425Z,17.39
2022-08-03T02:56:30.518Z,17.41
2022-08-03T02:59:32.703Z,17.41
2022-08-03T03:02:34.814Z,17.31
2022-08-03T03:05:55.713Z,17.31
2022-08-03T03:08:59.905Z,17.34
2022-08-03T03:12:02.129Z,17.40
2022-08-03T03:15:08.485Z,17.27
2022-08-03T03:18:10.676Z,17.36
2022-08-03T03:21:12.867Z,17.11
2022-08-03T03:24:15.075Z,17.00
2022-08-03T03:27:17.307Z,17.22
2022-08-03T03:30:19.543Z,17.36
2022-08-03T03:33:22.417Z,17.00
2022-08-03T03:36:24.517Z,17.14
2022-08-03T03:39:26.609Z,17.13
2022-08-03T03:42:28.688Z,17.16
2022-08-03T03:45:30.772Z,16.99
2022-08-03T03:48:33.162Z,16.97
2022-08-03T03:51:35.309Z,17.16
2022-08-03T03:54:44.374Z,16.85
2022-08-03T03:57:46.446Z,16.98
2022-08-03T04:00:48.668Z,17.02
2022-08-03T04:03:50.832Z,16.89
2022-08-03T04:07:11.712Z,16.92
2022-08-03T04:10:40.627Z,16.66
2022-08-03T04:14:03.827Z,16.68
2022-08-03T04:17:07.573Z,16.71
2022-08-03T04:20:10.552Z,16.76
2022-08-03T04:23:15.613Z,17.09
2022-08-03T04:26:21.274Z,16.85
2022-08-03T04:29:23.562Z,16.82
2022-08-03T04:32:28.626Z,16.80
2022-08-03T04:35:54.625Z,16.77
2022-08-03T04:39:19.896Z,16.67
2022-08-03T04:42:24.037Z,16.50
2022-08-03T04:45:27.312Z,16.52
2022-08-03T04:48:29.409Z,16.36
2022-08-03T04:51:31.544Z,16.50
2022-08-03T04:54:48.710Z,16.63
2022-08-03T04:57:52.863Z,16.49
2022-08-03T05:00:54.948Z,16.41
2022-08-03T05:03:57.034Z,16.29
2022-08-03T05:06:59.113Z,16.35
2022-08-03T05:10:16.109Z,16.27
2022-08-03T05:13:18.656Z,16.37
2022-08-03T05:16:20.723Z,16.26
2022-08-03T05:19:22.831Z,16.27
2022-08-03T05:22:24.907Z,16.19
2022-08-03T05:25:27.543Z,16.34
2022-08-03T05:28:29.777Z,16.20
2022-08-03T05:31:31.936Z,16.40
2022-08-03T05:34:34.265Z,16.24
2022-08-03T05:37:36.823Z,16.18
2022-08-03T05:40:38.996Z,16.21
2022-08-03T05:43:49.168Z,16.36
2022-08-03T05:46:51.683Z,16.37
2022-08-03T05:49:53.783Z,16.35
2022-08-03T05:52:57.864Z,16.46
2022-08-03T05:56:03.665Z,16.27
2022-08-03T05:59:37.653Z,16.37
2022-08-03T06:02:39.214Z,16.68
2022-08-03T06:05:43.390Z,16.68
2022-08-03T06:08:55.562Z,16.57
2022-08-03T06:11:57.679Z,16.62
2022-08-03T06:14:59.758Z,16.70
2022-08-03T06:18:02.278Z,16.76
2022-08-03T06:21:14.464Z,16.77
2022-08-03T06:24:17.905Z,16.38
2022-08-03T06:27:20.540Z,16.51
2022-08-03T06:30:38.377Z,16.44
2022-08-03T06:34:30.229Z,16.40
2022-08-03T06:37:02.843Z,16.63
2022-08-03T06:40:05.662Z,16.50
2022-08-03T06:43:12.206Z,16.36
2022-08-03T06:46:14.868Z,16.78
2022-08-03T06:49:17.149Z,16.51
2022-08-03T06:52:38.156Z,16.54
2022-08-03T06:55:42.358Z,16.75
2022-08-03T06:58:44.729Z,16.38
2022-08-03T07:01:46.885Z,16.68
2022-08-03T07:04:49.469Z,16.69
2022-08-03T07:07:55.699Z,16.47
2022-08-03T07:10:57.867Z,16.64
2022-08-03T07:14:00.017Z,17.04
2022-08-03T07:17:04.560Z,17.05
2022-08-03T07:20:15.266Z,16.69
2022-08-03T07:23:18.939Z,17.21
2022-08-03T07:26:21.589Z,17.48
2022-08-03T07:29:23.689Z,17.61
2022-08-03T07:32:25.874Z,17.74
2022-08-03T07:35:27.968Z,17.52
2022-08-03T07:38:30.114Z,17.22
2022-08-03T07:41:32.223Z,17.62
2022-08-03T07:44:34.304Z,17.39
2022-08-03T07:47:36.447Z,17.52
2022-08-03T07:50:38.525Z,17.79
2022-08-03T07:53:47.309Z,17.60
2022-08-03T07:56:50.018Z,17.57
2022-08-03T08:00:01.602Z,17.53
2022-08-03T08:03:14.156Z,17.55
2022-08-03T08:06:18.046Z,17.53
2022-08-03T08:09:20.457Z,17.63
2022-08-03T08:12:22.703Z,17.63
2022-08-03T08:15:25.002Z,17.43
2022-08-03T08:18:29.749Z,17.09
2022-08-03T08:21:53.093Z,17.37
2022-08-03T08:24:54.077Z,17.26
2022-08-03T08:28:22.474Z,17.34
2022-08-03T08:31:19.915Z,17.33
2022-08-03T08:34:22.021Z,17.54
2022-08-03T08:37:24.171Z,17.17
2022-08-03T08:40:26.292Z,16.84
2022-08-03T08:43:28.694Z,16.40
2022-08-03T08:46:33.911Z,16.65
2022-08-03T08:49:36.537Z,16.39
2022-08-03T08:52:41.347Z,16.92
2022-08-03T08:55:59.694Z,16.63
2022-08-03T08:59:02.940Z,17.08
2022-08-03T09:02:05.892Z,17.56
2022-08-03T09:05:16.838Z,17.46
2022-08-03T09:08:18.955Z,17.61
2022-08-03T09:11:51.741Z,17.84
2022-08-03T09:15:00.897Z,17.74
2022-08-03T09:18:09.477Z,17.65
2022-08-03T09:21:33.648Z,17.48
2022-08-03T09:24:41.413Z,17.33
2022-08-03T09:27:45.009Z,17.53
2022-08-03T09:30:59.131Z,17.66
2022-08-03T09:34:09.577Z,17.76
2022-08-03T09:37:18.878Z,17.92
2022-08-03T09:40:35.360Z,17.51
2022-08-03T09:43:47.119Z,17.61
2022-08-03T09:46:56.586Z,18.20
2022-08-03T09:50:06.317Z,18.45
2022-08-03T09:53:08.422Z,18.25
2022-08-03T09:56:34.313Z,18.10
2022-08-03T09:59:33.264Z,18.52
2022-08-03T10:02:35.555Z,18.18
2022-08-03T10:05:39.116Z,18.30
2022-08-03T10:08:41.190Z,18.24
2022-08-03T10:11:44.096Z,18.56
2022-08-03T10:14:46.714Z,18.24
2022-08-03T10:17:48.849Z,18.57
2022-08-03T10:20:53.601Z,18.39
2022-08-03T10:23:56.030Z,17.87
2022-08-03T10:27:07.248Z,17.98
2022-08-03T10:30:11.174Z,17.88
2022-08-03T10:33:49.988Z,18.40
2022-08-03T10:36:44.288Z,18.57
2022-08-03T10:39:56.301Z,18.63
2022-08-03T10:43:04.300Z,18.67
2022-08-03T10:46:07.371Z,18.51
2022-08-03T10:49:12.589Z,18.73
2022-08-03T10:52:31.755Z,19.68
2022-08-03T10:56:03.416Z,19.78
2022-08-03T10:59:08.975Z,20.24
2022-08-03T11:02:15.769Z,20.02
2022-08-03T11:05:29.619Z,20.16
2022-08-03T11:08:35.067Z,20.22
2022-08-03T11:11:41.893Z,19.36
2022-08-03T11:14:47.999Z,19.30
2022-08-03T11:18:12.088Z,19.53
2022-08-03T11:21:14.870Z,18.93
2022-08-03T11:24:42.560Z,18.32
2022-08-03T11:27:44.711Z,18.56
2022-08-03T11:30:46.794Z,18.56
2022-08-03T11:34:11.687Z,18.47
2022-08-03T11:37:23.086Z,18.38
2022-08-03T11:40:47.313Z,18.24
2022-08-03T11:43:49.431Z,18.19
2022-08-03T11:46:51.597Z,17.98
2022-08-03T11:49:59.232Z,18.27
2022-08-03T11:53:01.446Z,18.02
2022-08-03T11:56:03.808Z,18.36
2022-08-03T11:59:20.557Z,18.17
2022-08-03T12:02:24.017Z,18.07
2022-08-03T12:05:53.371Z,18.44
2022-08-03T12:08:57.019Z,18.00
2022-08-03T12:12:00.561Z,18.16
2022-08-03T12:15:04.155Z,18.64
2022-08-03T12:18:17.704Z,18.75
2022-08-03T12:21:24.343Z,18.77
2022-08-03T12:24:28.532Z,18.38
2022-08-03T12:27:30.702Z,18.06
2022-08-03T12:30:32.957Z,18.36
2022-08-03T12:33:56.535Z,18.22
2022-08-03T12:36:59.421Z,17.99
2022-08-03T12:40:09.560Z,18.17
2022-08-03T12:43:14.328Z,18.15
2022-08-03T12:46:19.808Z,18.29
2022-08-03T12:49:21.963Z,18.24
2022-08-03T12:52:24.102Z,17.98
2022-08-03T12:55:57.244Z,18.11
2022-08-03T12:58:55.784Z,18.88
2022-08-03T13:01:58.246Z,17.92
2022-08-03T13:05:01.095Z,18.19
2022-08-03T13:08:03.283Z,19.52
2022-08-03T13:11:55.590Z,20.30
2022-08-03T13:14:59.627Z,20.29
2022-08-03T13:18:01.708Z,19.19
2022-08-03T13:21:04.035Z,19.55
2022-08-03T13:24:06.536Z,21.38
2022-08-03T13:28:02.117Z,20.81
2022-08-03T13:30:30.952Z,19.70
2022-08-03T13:33:33.564Z,18.61
2022-08-03T13:36:59.215Z,18.95
2022-08-03T13:40:02.256Z,19.10
2022-08-03T13:43:05.260Z,18.79
2022-08-03T13:46:07.323Z,19.10
2022-08-03T13:49:09.495Z,18.47
2022-08-03T13:52:11.779Z,18.33
2022-08-03T13:55:13.860Z,18.73
2022-08-03T13:58:16.253Z,18.22
2022-08-03T14:01:29.695Z,18.15
2022-08-03T14:04:40.750Z,18.31
2022-08-03T14:07:42.822Z,18.28
2022-08-03T14:10:45.791Z,18.48
2022-08-03T14:13:47.973Z,18.39
2022-08-03T14:16:50.156Z,18.49
2022-08-03T14:19:53.367Z,18.47
2022-08-03T14:22:56.310Z,18.61
2022-08-03T14:25:58.678Z,18.33
2022-08-03T14:29:00.856Z,18.40
2022-08-03T14:32:09.965Z,18.18
2022-08-03T14:35:14.514Z,18.04
2022-08-03T14:38:16.786Z,17.99
2022-08-03T14:41:19.944Z,18.79
2022-08-03T14:44:22.401Z,17.86
2022-08-03T14:47:24.580Z,17.93
2022-08-03T14:50:41.076Z,20.07
2022-08-03T14:53:46.760Z,18.26
2022-08-03T14:56:48.842Z,17.99
2022-08-03T14:59:55.888Z,18.10
2022-08-03T15:02:59.550Z,19.42
2022-08-03T15:06:01.648Z,18.90
2022-08-03T15:09:22.437Z,19.51
2022-08-03T15:12:25.969Z,20.52
2022-08-03T15:15:28.062Z,19.26
2022-08-03T15:18:30.304Z,19.95
2022-08-03T15:21:46.114Z,19.97
2022-08-03T15:24:49.815Z,20.12
2022-08-03T15:28:03.411Z,20.63
2022-08-03T15:31:07.099Z,20.65
2022-08-03T15:34:09.259Z,20.57
2022-08-03T15:37:15.094Z,23.23
2022-08-03T15:40:18.908Z,23.79
2022-08-03T15:43:22.611Z,22.01
2022-08-03T15:46:29.509Z,20.52
2022-08-03T15:49:32.162Z,20.83
2022-08-03T15:52:36.438Z,22.82
2022-08-03T15:55:38.543Z,21.83
2022-08-03T15:59:03.616Z,22.65
2022-08-03T16:02:02.893Z,22.87
2022-08-03T16:05:05.568Z,22.28
2022-08-03T16:08:13.248Z,19.45
2022-08-03T16:11:16.429Z,19.92
2022-08-03T16:14:32.368Z,19.56
2022-08-03T16:17:38.882Z,19.61
2022-08-03T16:20:41.759Z,19.79
2022-08-03T16:23:47.287Z,20.35
2022-08-03T16:26:49.680Z,20.59
2022-08-03T16:29:56.832Z,19.78
2022-08-03T16:32:58.903Z,19.49
2022-08-03T16:36:01.155Z,18.91
2022-08-03T16:39:03.405Z,20.39
2022-08-03T16:42:05.626Z,19.04
2022-08-03T16:45:09.135Z,19.54
2022-08-03T16:48:11.353Z,19.22
2022-08-03T16:51:13.427Z,19.09
2022-08-03T16:54:15.763Z,18.57
2022-08-03T16:57:55.964Z,18.79
2022-08-03T17:00:43.791Z,18.79
2022-08-03T17:04:01.595Z,18.57
2022-08-03T17:07:13.673Z,18.62
2022-08-03T17:10:27.031Z,18.61
2022-08-03T17:13:39.806Z,18.83
2022-08-03T17:16:52.854Z,18.60
2022-08-03T17:19:56.751Z,18.70
2022-08-03T17:23:34.479Z,18.27
2022-08-03T17:26:50.015Z,18.01
2022-08-03T17:29:57.013Z,17.83
2022-08-03T17:32:59.089Z,18.01
2022-08-03T17:36:01.216Z,18.18
2022-08-03T17:39:05.281Z,17.92
2022-08-03T17:42:29.349Z,17.84
2022-08-03T17:45:52.060Z,18.12
2022-08-03T17:48:55.371Z,18.62
2022-08-03T17:52:04.108Z,18.11
2022-08-03T17:55:57.871Z,18.29
2022-08-03T17:58:59.438Z,18.70
2022-08-03T18:02:49.811Z,18.73
2022-08-03T18:06:10.493Z,18.56
2022-08-03T18:10:03.485Z,18.27
2022-08-03T18:13:04.183Z,18.15
2022-08-03T18:16:13.434Z,18.32
2022-08-03T18:19:15.915Z,18.24
2022-08-03T18:22:21.455Z,18.08
2022-08-03T18:25:44.966Z,18.02
2022-08-03T18:28:51.694Z,17.79
2022-08-03T18:32:04.023Z,17.99
2022-08-03T18:35:13.662Z,18.23
2022-08-03T18:38:16.842Z,18.32
2022-08-03T18:41:32.147Z,18.46
2022-08-03T18:48:05.954Z,18.09
2022-08-03T18:51:28.518Z,17.93
2022-08-03T18:55:13.965Z,17.98
2022-08-03T18:58:34.305Z,17.52
2022-08-03T19:01:59.981Z,17.31
2022-08-03T19:05:09.004Z,17.29
2022-08-03T19:08:17.156Z,17.47
2022-08-03T19:12:12.718Z,17.49
2022-08-03T19:15:13.551Z,17.63
2022-08-03T19:18:18.159Z,17.43
2022-08-03T19:21:20.299Z,17.27
2022-08-03T19:24:26.108Z,17.54
2022-08-03T19:27:29.898Z,17.38
2022-08-03T19:30:38.926Z,17.41
2022-08-03T19:33:55.830Z,17.23
2022-08-03T19:36:59.270Z,17.05
2022-08-03T19:40:02.027Z,17.08
2022-08-03T19:43:33.051Z,16.68
2022-08-03T19:47:00.902Z,16.36
2022-08-03T19:50:14.296Z,16.70
2022-08-03T19:53:16.736Z,16.64
2022-08-03T19:56:23.015Z,16.46
2022-08-03T19:59:26.364Z,16.40
2022-08-03T20:02:29.750Z,16.32
2022-08-03T20:05:44.867Z,16.40
2022-08-03T20:08:54.018Z,16.37
2022-08-03T20:11:57.337Z,16.25
2022-08-03T20:14:59.830Z,16.18
2022-08-03T20:18:02.899Z,16.13
2022-08-03T20:21:15.167Z,16.24
2022-08-03T20:24:25.618Z,16.06
2022-08-03T20:27:30.296Z,15.97
2022-08-03T20:30:32.531Z,16.02
2022-08-03T20:33:45.861Z,15.93
2022-08-03T20:36:50.669Z,15.93
2022-08-03T20:39:54.393Z,15.96
2022-08-03T20:42:56.549Z,15.99
2022-08-03T20:46:29.251Z,15.99
2022-08-03T20:49:22.965Z,16.20
2022-08-03T20:52:25.590Z,16.04
2022-08-03T20:55:47.212Z,16.16
2022-08-03T20:58:51.522Z,16.16
2022-08-03T21:01:53.978Z,16.26
2022-08-03T21:04:56.901Z,16.14
2022-08-03T21:08:06.720Z,16.24
2022-08-03T21:11:15.835Z,16.11
2022-08-03T21:13:05.597Z,18.21
2022-08-03T21:14:28.857Z,16.60
2022-08-03T21:17:42.375Z,16.18
2022-08-03T21:20:45.067Z,16.19
2022-08-03T21:23:52.675Z,16.04
2022-08-03T21:26:55.131Z,16.36
2022-08-03T21:30:02.305Z,16.14
2022-08-03T21:33:07.700Z,16.27
2022-08-03T21:36:10.900Z,16.20
2022-08-03T21:39:13.105Z,16.55
2022-08-03T21:42:15.215Z,16.33
2022-08-03T21:45:17.923Z,16.31
2022-08-03T21:48:20.733Z,16.15
2022-08-03T21:51:25.065Z,16.14
2022-08-03T21:54:34.461Z,16.02
2022-08-03T21:57:37.568Z,16.66
2022-08-03T22:00:42.891Z,16.71
2022-08-03T22:03:51.113Z,16.51
2022-08-03T22:06:55.467Z,16.64
2022-08-03T22:09:58.768Z,16.79
2022-08-03T22:13:00.850Z,16.29
2022-08-03T22:16:03.006Z,16.16
2022-08-03T22:19:05.088Z,16.29
2022-08-03T22:22:08.522Z,16.46
2022-08-03T22:25:15.242Z,16.10
2022-08-03T22:28:17.341Z,16.14
2022-08-03T22:31:30.557Z,16.25
2022-08-03T22:34:42.523Z,16.25
2022-08-03T22:37:44.658Z,16.10
2022-08-03T22:40:50.863Z,15.52
2022-08-03T22:43:53.183Z,15.53
2022-08-03T22:46:55.717Z,15.64
2022-08-03T22:50:31.210Z,15.64
2022-08-03T22:53:21.908Z,15.49
2022-08-03T22:56:24.019Z,15.34
2022-08-03T22:59:40.884Z,15.30
2022-08-03T23:02:45.339Z,14.90
2022-08-03T23:06:01.436Z,14.94
2022-08-03T23:09:13.426Z,15.02
2022-08-03T23:12:20.241Z,15.02
2022-08-03T23:15:22.350Z,14.81
2022-08-03T23:18:25.490Z,14.84
2022-08-03T23:21:53.890Z,14.98
2022-08-03T23:24:52.661Z,15.05
2022-08-03T23:28:04.891Z,15.02
2022-08-03T23:31:08.479Z,15.20
2022-08-03T23:34:29.206Z,15.26
2022-08-03T23:37:31.343Z,15.15
2022-08-03T23:40:33.523Z,15.13
2022-08-03T23:43:52.374Z,15.02
2022-08-03T23:46:56.057Z,15.17
2022-08-03T23:49:58.146Z,15.45
2022-08-03T23:53:39.498Z,15.82
2022-08-03T23:56:45.911Z,15.82
